createdAt,value
2023-04-02T00:02:32.085Z,101195.94
2023-04-02T00:07:34.509Z,101202.94
2023-04-02T00:12:37.175Z,101205.97
2023-04-02T00:17:39.473Z,101220.69
2023-04-02T00:22:45.284Z,101221.41
2023-04-02T00:27:48.020Z,101215.22
2023-04-02T00:32:51.891Z,101200.09
2023-04-02T00:37:55.069Z,101205.88
2023-04-02T00:43:00.280Z,101197.50
2023-04-02T00:48:21.407Z,101201.06
2023-04-02T00:53:30.705Z,101204.56
2023-04-02T00:58:36.942Z,101197.59
2023-04-02T01:03:39.349Z,101194.72
2023-04-02T01:08:44.570Z,101181.78
2023-04-02T01:13:54.656Z,101187.22
2023-04-02T01:19:06.421Z,101185.38
2023-04-02T01:24:12.584Z,101191.19
2023-04-02T01:29:20.717Z,101193.81
2023-04-02T01:34:26.654Z,101192.56
2023-04-02T01:39:48.055Z,101189.00
2023-04-02T01:44:54.783Z,101182.81
2023-04-02T01:50:25.687Z,101179.97
2023-04-02T01:55:34.800Z,101178.94
2023-04-02T02:00:43.832Z,101183.22
2023-04-02T02:05:46.918Z,101170.50
2023-04-02T02:10:51.135Z,101172.66
2023-04-02T02:15:58.308Z,101172.28
2023-04-02T02:21:05.607Z,101166.50
2023-04-02T02:26:08.407Z,101174.47
2023-04-02T02:31:22.920Z,101170.25
2023-04-02T02:36:57.007Z,101179.19
2023-04-02T02:42:22.123Z,101181.63
2023-04-02T02:47:31.143Z,101186.06
2023-04-02T02:52:38.772Z,101192.75
2023-04-02T02:57:54.316Z,101181.34
2023-04-02T03:02:59.046Z,101176.41
2023-04-02T03:08:10.008Z,101176.34
2023-04-02T03:13:15.397Z,101181.34
2023-04-02T03:18:33.341Z,101177.28
2023-04-02T03:23:49.345Z,101181.72
2023-04-02T03:29:03.338Z,101179.38
2023-04-02T03:34:33.794Z,101177.94
2023-04-02T03:39:45.867Z,101174.69
2023-04-02T03:45:10.715Z,101180.88
2023-04-02T03:50:21.848Z,101182.44
2023-04-02T03:55:32.872Z,101173.69
2023-04-02T04:00:44.953Z,101178.50
2023-04-02T04:06:00.923Z,101182.56
2023-04-02T04:11:10.604Z,101174.19
2023-04-02T04:16:19.448Z,101171.31
2023-04-02T04:21:37.778Z,101177.34
2023-04-02T04:27:11.867Z,101177.16
2023-04-02T04:32:32.610Z,101168.09
2023-04-02T04:37:43.826Z,101174.00
2023-04-02T04:42:53.277Z,101171.22
2023-04-02T04:48:01.792Z,101173.72
2023-04-02T04:53:08.232Z,101179.50
2023-04-02T04:58:25.565Z,101174.00
2023-04-02T05:03:38.225Z,101187.50
2023-04-02T05:08:47.853Z,101174.19
2023-04-02T05:13:58.113Z,101186.53
2023-04-02T05:19:10.593Z,101177.94
2023-04-02T05:24:28.372Z,101172.91
2023-04-02T05:29:37.749Z,101171.63
2023-04-02T05:34:45.826Z,101174.75
2023-04-02T05:39:55.925Z,101182.66
2023-04-02T05:45:05.466Z,101188.63
2023-04-02T05:50:07.881Z,101188.31
2023-04-02T05:55:43.944Z,101195.53
2023-04-02T06:01:00.111Z,101187.91
2023-04-02T06:06:14.701Z,101181.19
2023-04-02T06:11:24.133Z,101183.56
2023-04-02T06:16:31.083Z,101177.84
2023-04-02T06:21:33.487Z,101173.91
2023-04-02T06:26:48.202Z,101176.91
2023-04-02T06:31:56.794Z,101163.59
2023-04-02T06:37:38.088Z,101171.84
2023-04-02T06:43:09.249Z,101168.22
2023-04-02T06:48:32.563Z,101164.41
2023-04-02T06:53:40.297Z,101163.53
2023-04-02T06:58:47.208Z,101153.81
2023-04-02T07:03:50.625Z,101145.00
2023-04-02T07:09:05.207Z,101148.06
2023-04-02T07:14:12.376Z,101137.97
2023-04-02T07:19:23.212Z,101140.22
2023-04-02T07:24:30.207Z,101136.31
2023-04-02T07:29:32.511Z,101133.31
2023-04-02T07:34:34.818Z,101131.53
2023-04-02T07:39:40.173Z,101121.19
2023-04-02T07:44:43.089Z,101107.78
2023-04-02T07:49:45.542Z,101114.81
2023-04-02T07:54:48.062Z,101101.22
2023-04-02T07:59:51.087Z,101101.00
2023-04-02T08:04:53.482Z,101089.38
2023-04-02T08:09:55.818Z,101084.31
2023-04-02T08:14:58.267Z,101075.69
2023-04-02T08:20:04.727Z,101061.78
2023-04-02T08:25:07.451Z,101056.56
2023-04-02T08:30:12.902Z,101050.22
2023-04-02T08:35:17.301Z,101053.72
2023-04-02T08:40:41.942Z,101054.84
2023-04-02T08:46:35.733Z,101035.19
2023-04-02T08:51:38.552Z,101027.88
2023-04-02T08:56:47.502Z,101017.63
2023-04-02T09:02:00.552Z,101023.22
2023-04-02T09:07:04.633Z,101005.56
2023-04-02T09:12:16.617Z,101013.91
2023-04-02T09:17:28.185Z,101008.41
2023-04-02T09:22:33.188Z,101013.06
2023-04-02T09:27:36.953Z,101005.31
2023-04-02T09:32:51.453Z,101010.16
2023-04-02T09:38:33.259Z,101007.97
2023-04-02T09:43:40.121Z,101002.72
2023-04-02T09:48:53.453Z,101010.19
2023-04-02T09:54:04.573Z,101003.47
2023-04-02T09:59:16.926Z,100992.72
2023-04-02T10:04:47.323Z,100990.41
2023-04-02T10:09:58.906Z,100992.44
2023-04-02T10:15:03.590Z,100988.06
2023-04-02T10:20:17.948Z,100979.19
2023-04-02T10:25:24.922Z,100977.88
2023-04-02T10:30:35.999Z,100977.91
2023-04-02T10:36:05.127Z,100965.50
2023-04-02T10:41:21.479Z,100970.31
2023-04-02T10:46:53.051Z,100963.09
2023-04-02T10:51:55.399Z,100948.28
2023-04-02T10:57:06.993Z,100959.31
2023-04-02T11:02:36.721Z,100950.69
2023-04-02T11:07:52.613Z,100949.44
2023-04-02T11:13:23.103Z,100944.03
2023-04-02T11:18:36.083Z,100947.78
2023-04-02T11:24:01.786Z,100942.06
2023-04-02T11:29:15.949Z,100941.25
2023-04-02T11:35:03.050Z,100938.31
2023-04-02T11:40:16.734Z,100947.16
2023-04-02T11:45:25.246Z,100937.63
2023-04-02T11:50:42.162Z,100941.09
2023-04-02T11:55:44.499Z,100932.03
2023-04-02T12:01:05.782Z,100944.78
2023-04-02T12:06:29.467Z,100929.09
2023-04-02T12:11:40.663Z,100932.91
2023-04-02T12:16:43.082Z,100928.94
2023-04-02T12:21:48.898Z,100924.84
2023-04-02T12:27:16.578Z,100919.16
2023-04-02T12:32:30.012Z,100931.00
2023-04-02T12:37:32.869Z,100928.38
2023-04-02T12:42:37.329Z,100919.63
2023-04-02T12:47:45.432Z,100914.00
2023-04-02T12:52:53.540Z,100927.00
2023-04-02T12:57:57.670Z,100913.69
2023-04-02T13:02:59.920Z,100915.59
2023-04-02T13:08:03.675Z,100909.56
2023-04-02T13:13:06.912Z,100909.66
2023-04-02T13:18:20.737Z,100909.00
2023-04-02T13:23:31.975Z,100912.91
2023-04-02T13:28:34.352Z,100903.47
2023-04-02T13:33:37.350Z,100908.94
2023-04-02T13:38:39.727Z,100904.41
2023-04-02T13:43:42.113Z,100918.63
2023-04-02T13:48:44.470Z,100917.47
2023-04-02T13:53:54.380Z,100921.59
2023-04-02T13:58:56.785Z,100920.06
2023-04-02T14:03:59.448Z,100921.75
2023-04-02T14:09:14.286Z,100917.75
2023-04-02T14:15:03.631Z,100916.59
2023-04-02T14:20:28.869Z,100911.59
2023-04-02T14:25:40.285Z,100918.88
2023-04-02T14:31:07.850Z,100927.22
2023-04-02T14:36:18.783Z,100926.38
2023-04-02T14:42:02.255Z,100927.44
2023-04-02T14:47:26.191Z,100913.28
2023-04-02T14:52:33.904Z,100929.56
2023-04-02T14:57:45.034Z,100917.34
2023-04-02T15:03:06.503Z,100920.03
2023-04-02T15:08:21.118Z,100921.97
2023-04-02T15:13:31.301Z,100917.34
2023-04-02T15:18:33.726Z,100924.56
2023-04-02T15:23:51.299Z,100926.41
2023-04-02T15:29:07.570Z,100918.00
2023-04-02T15:34:58.172Z,100912.78
2023-04-02T15:40:25.653Z,100907.72
2023-04-02T15:45:59.009Z,100931.28
2023-04-02T15:51:13.651Z,100918.31
2023-04-02T15:56:39.063Z,100913.25
2023-04-02T16:01:53.660Z,100929.50
2023-04-02T16:07:28.209Z,100927.22
2023-04-02T16:12:33.695Z,100935.53
2023-04-02T16:17:48.888Z,100932.59
2023-04-02T16:23:01.173Z,100932.75
2023-04-02T16:28:12.887Z,100933.28
2023-04-02T16:33:20.119Z,100928.56
2023-04-02T16:38:46.635Z,100934.81
2023-04-02T16:44:07.910Z,100924.13
2023-04-02T16:49:48.652Z,100933.03
2023-04-02T16:55:12.833Z,100935.00
2023-04-02T17:00:56.498Z,100942.09
2023-04-02T17:06:07.184Z,100940.16
2023-04-02T17:11:21.693Z,100931.09
2023-04-02T17:16:42.100Z,100937.53
2023-04-02T17:21:48.963Z,100944.28
2023-04-02T17:26:55.306Z,100926.81
2023-04-02T17:32:01.739Z,100921.56
2023-04-02T17:37:43.036Z,100929.75
2023-04-02T17:42:57.214Z,100927.94
2023-04-02T17:48:13.052Z,100915.41
2023-04-02T17:53:22.010Z,100920.00
2023-04-02T17:58:24.292Z,100922.78
2023-04-02T18:03:50.827Z,100923.63
2023-04-02T18:09:29.346Z,100923.16
2023-04-02T18:15:16.160Z,100918.50
2023-04-02T18:20:21.339Z,100927.41
2023-04-02T18:25:29.640Z,100924.75
2023-04-02T18:30:56.176Z,100926.72
2023-04-02T18:36:19.856Z,100923.38
2023-04-02T18:41:22.112Z,100920.06
2023-04-02T18:46:50.716Z,100921.50
2023-04-02T18:51:59.204Z,100920.47
2023-04-02T18:57:10.430Z,100918.44
2023-04-02T19:02:41.846Z,100918.41
2023-04-02T19:07:47.286Z,100919.19
2023-04-02T19:12:49.532Z,100904.56
2023-04-02T19:18:30.706Z,100898.31
2023-04-02T19:24:01.131Z,100911.59
2023-04-02T19:29:06.450Z,100907.75
2023-04-02T19:34:24.913Z,100902.97
2023-04-02T19:39:39.851Z,100905.13
2023-04-02T19:44:47.419Z,100899.66
2023-04-02T19:49:49.956Z,100892.56
2023-04-02T19:54:52.588Z,100892.63
2023-04-02T19:59:54.930Z,100886.41
2023-04-02T20:04:57.431Z,100888.38
2023-04-02T20:09:59.681Z,100880.81
2023-04-02T20:15:02.110Z,100877.38
2023-04-02T20:20:06.840Z,100871.97
2023-04-02T20:25:09.342Z,100878.53
2023-04-02T20:30:12.156Z,100873.84
2023-04-02T20:35:14.548Z,100881.84
2023-04-02T20:40:16.947Z,100862.72
2023-04-02T20:45:19.533Z,100873.19
2023-04-02T20:50:22.073Z,100875.03
2023-04-02T20:55:24.377Z,100888.28
2023-04-02T21:00:26.694Z,100884.63
2023-04-02T21:05:29.092Z,100876.78
2023-04-02T21:10:31.366Z,100887.25
2023-04-02T21:15:34.178Z,100871.38
2023-04-02T21:20:36.724Z,100886.44
2023-04-02T21:25:39.025Z,100884.63
2023-04-02T21:30:41.534Z,100894.53
2023-04-02T21:35:43.964Z,100882.06
2023-04-02T21:40:46.232Z,100884.84
2023-04-02T21:45:48.509Z,100886.81
2023-04-02T21:50:50.812Z,100888.16
2023-04-02T21:56:01.487Z,100878.75
2023-04-02T22:01:07.135Z,100879.06
2023-04-02T22:06:14.230Z,100877.72
2023-04-02T22:11:19.414Z,100881.94
2023-04-02T22:16:24.759Z,100876.78
2023-04-02T22:21:27.766Z,100872.63
2023-04-02T22:26:31.477Z,100867.69
2023-04-02T22:31:35.364Z,100867.56
2023-04-02T22:36:37.912Z,100864.16
2023-04-02T22:41:40.268Z,100862.00
2023-04-02T22:46:42.625Z,100854.78
2023-04-02T22:51:45.676Z,100861.09
2023-04-02T22:56:48.098Z,100855.41
2023-04-02T23:01:50.611Z,100854.88
2023-04-02T23:06:53.253Z,100858.88
2023-04-02T23:11:55.865Z,100855.97
2023-04-02T23:16:58.152Z,100854.94
2023-04-02T23:22:00.502Z,100851.31
2023-04-02T23:27:03.305Z,100848.25
2023-04-02T23:32:06.129Z,100844.91
2023-04-02T23:37:08.868Z,100862.28
2023-04-02T23:42:12.128Z,100864.00
2023-04-02T23:47:14.460Z,100852.16
2023-04-02T23:52:16.768Z,100855.06
2023-04-02T23:57:19.541Z,100859.72
